Time;durP1;ratioP1;P1;durP2;ratioP2;P2;SDS_P1;SDS_P2;PMS_P1;PMS_P2;Temp;Humidity;BMP_temperature;BMP_pressure;BME280_temperature;BME280_humidity;BME280_pressure;Samples;Min_cycle;Max_cycle;Signal;HPM_P1;HPM_P2
2023/10/13 00:02:10;;;;;;;14.82;10.70;;;;;;;17.41;92.02;101124.59;5106472;28;20032;-65
2023/10/13 00:04:36;;;;;;;16.40;10.27;;;;;;;17.41;92.30;101118.97;5097825;28;20035;-66
2023/10/13 00:07:03;;;;;;;14.38;11.05;;;;;;;17.41;92.05;101122.59;5110142;28;20068;-65
2023/10/13 00:09:32;;;;;;;14.18;10.73;;;;;;;17.41;92.20;101107.75;5096012;28;20092;-66
2023/10/13 00:12:00;;;;;;;15.45;9.93;;;;;;;17.40;92.26;101108.84;5098754;28;20040;-66
2023/10/13 00:14:33;;;;;;;11.80;9.70;;;;;;;17.40;92.20;101104.06;5104480;28;20027;-66
2023/10/13 00:17:07;;;;;;;16.05;9.60;;;;;;;17.41;92.06;101108.56;5101520;28;20051;-65
2023/10/13 00:19:46;;;;;;;14.05;9.50;;;;;;;17.39;92.07;101108.03;5095007;28;20016;-66
2023/10/13 00:22:15;;;;;;;11.98;9.77;;;;;;;17.38;92.22;101097.94;5096745;28;20032;-66
2023/10/13 00:24:43;;;;;;;17.42;9.38;;;;;;;17.39;92.17;101088.38;5092759;28;20039;-65
2023/10/13 00:27:24;;;;;;;9.85;8.85;;;;;;;17.38;92.17;101092.31;5089795;28;20567;-66
2023/10/13 00:29:50;;;;;;;13.40;9.60;;;;;;;17.39;92.02;101088.38;5094552;28;20028;-66
2023/10/13 00:32:20;;;;;;;15.43;9.55;;;;;;;17.40;91.95;101090.03;5093936;28;20110;-65
2023/10/13 00:34:45;;;;;;;14.02;9.43;;;;;;;17.37;92.11;101085.03;5094544;28;20035;-66
2023/10/13 00:37:27;;;;;;;14.32;9.38;;;;;;;17.36;92.19;101083.34;5094538;28;20345;-65
2023/10/13 00:39:56;;;;;;;15.75;9.25;;;;;;;17.37;92.08;101078.56;5096730;28;20028;-65
2023/10/13 00:42:30;;;;;;;10.38;8.30;;;;;;;17.34;92.56;101080.00;5098560;28;20038;-66
2023/10/13 00:44:55;;;;;;;10.30;8.30;;;;;;;17.36;92.20;101074.09;5096228;28;20505;-66
2023/10/13 00:47:37;;;;;;;13.30;8.60;;;;;;;17.34;92.32;101082.81;5108793;28;20048;-66
2023/10/13 00:50:10;;;;;;;12.50;8.52;;;;;;;17.34;92.37;101071.59;5106196;28;20084;-66
2023/10/13 00:52:37;;;;;;;13.52;8.20;;;;;;;17.34;92.26;101071.59;5098404;28;20020;-65
2023/10/13 00:55:04;;;;;;;12.40;8.48;;;;;;;17.33;92.47;101063.44;5111243;28;20103;-66
2023/10/13 00:57:30;;;;;;;12.82;8.45;;;;;;;17.36;92.31;101065.69;5109749;28;20023;-65
2023/10/13 01:00:12;;;;;;;11.95;8.00;;;;;;;17.33;92.49;101060.66;5105459;28;20024;-65
2023/10/13 01:05:09;;;;;;;11.15;7.80;;;;;;;17.33;92.77;101055.91;5096953;28;20035;-66
2023/10/13 01:07:37;;;;;;;;;;;;;;;17.43;91.66;101052.97;5098755;28;20028;-65
2023/10/13 01:10:13;;;;;;;11.38;7.75;;;;;;;17.34;92.32;101049.16;5093887;28;19981;-66
2023/10/13 01:12:38;;;;;;;12.70;7.25;;;;;;;17.35;92.27;101052.78;5112032;28;20479;-66
2023/10/13 01:15:08;;;;;;;12.88;7.60;;;;;;;17.33;92.34;101046.63;5100167;28;20035;-66
2023/10/13 01:17:33;;;;;;;12.23;7.47;;;;;;;17.34;92.30;101040.72;5093391;28;20028;-66
2023/10/13 01:19:59;;;;;;;11.57;7.03;;;;;;;17.29;92.58;101043.59;5093238;28;20379;-66
2023/10/13 01:22:25;;;;;;;12.43;7.38;;;;;;;17.30;92.57;101031.22;5098874;28;20028;-65
2023/10/13 01:24:51;;;;;;;10.48;7.63;;;;;;;17.29;92.47;101023.09;5083228;28;20055;-66
2023/10/13 01:27:20;;;;;;;12.55;7.45;;;;;;;17.28;92.37;101025.06;5107744;28;20081;-65
2023/10/13 01:30:04;;;;;;;10.65;6.65;;;;;;;17.27;92.54;101017.78;5098514;28;20036;-66
2023/10/13 01:32:32;;;;;;;11.80;6.32;;;;;;;17.28;92.36;101019.44;5107436;28;20562;-66
2023/10/13 01:35:04;;;;;;;12.35;6.68;;;;;;;17.30;92.21;101016.38;5097713;28;20028;-66
2023/10/13 01:37:30;;;;;;;9.18;6.30;;;;;;;17.30;92.36;101005.16;5093063;28;20417;-66
2023/10/13 01:39:55;;;;;;;9.73;6.88;;;;;;;17.24;92.42;101001.53;5092005;28;20095;-65
2023/10/13 01:42:24;;;;;;;14.93;6.75;;;;;;;17.27;92.63;100997.31;5091470;28;20036;-66
2023/10/13 01:45:03;;;;;;;11.55;6.78;;;;;;;17.24;92.83;100995.09;5092945;28;20035;-66
2023/10/13 01:47:30;;;;;;;12.57;6.70;;;;;;;17.22;92.92;100997.38;5093450;28;20028;-66
2023/10/13 01:49:58;;;;;;;11.50;6.93;;;;;;;17.23;92.54;100987.81;5112552;28;20511;-66
2023/10/13 01:52:25;;;;;;;9.27;6.20;;;;;;;17.23;92.99;100977.44;5105005;28;20070;-66
2023/10/13 01:54:50;;;;;;;10.82;7.25;;;;;;;17.24;93.14;100978.25;5109025;28;20086;-66
2023/10/13 01:57:19;;;;;;;13.25;6.60;;;;;;;17.25;92.94;100974.31;5092779;28;20741;-66
2023/10/13 01:59:48;;;;;;;15.23;7.97;;;;;;;17.25;93.12;100972.38;5095116;28;20478;-66
2023/10/13 02:02:14;;;;;;;8.23;6.47;;;;;;;17.23;93.37;100966.22;5096252;28;20498;-65
2023/10/13 02:04:48;;;;;;;13.52;6.78;;;;;;;17.23;93.51;100966.22;5107392;28;20099;-66
2023/10/13 02:07:15;;;;;;;10.48;7.38;;;;;;;17.24;93.39;100959.47;5113133;28;20020;-66
2023/10/13 02:09:42;;;;;;;15.88;7.93;;;;;;;17.24;93.45;100951.03;5112175;28;20028;-66
2023/10/13 02:12:09;;;;;;;11.15;7.18;;;;;;;17.22;93.82;100950.50;5107146;28;20023;-66
2023/10/13 02:14:36;;;;;;;11.40;7.20;;;;;;;17.23;93.87;100948.53;5112882;28;20032;-66
2023/10/13 02:17:16;;;;;;;13.10;8.35;;;;;;;17.20;93.93;100955.56;5112161;28;20443;-65
2023/10/13 02:19:48;;;;;;;14.45;8.27;;;;;;;17.23;94.08;100957.78;5112978;28;20024;-66
2023/10/13 02:22:29;;;;;;;15.55;8.20;;;;;;;17.21;94.07;100946.00;5102835;28;20067;-67
2023/10/13 02:25:01;;;;;;;12.57;8.32;;;;;;;17.18;94.64;100949.44;5090363;28;20055;-67
2023/10/13 02:27:26;;;;;;;10.73;8.38;;;;;;;17.22;94.57;100952.50;5091361;28;20035;-67
2023/10/13 02:29:58;;;;;;;16.42;9.23;;;;;;;17.24;94.53;100950.22;5096590;28;20027;-67
2023/10/13 02:32:23;;;;;;;12.50;8.70;;;;;;;17.23;94.50;100938.16;5106435;28;20024;-67
2023/10/13 02:34:49;;;;;;;17.73;10.23;;;;;;;17.23;94.75;100937.31;5109420;28;20032;-66
2023/10/13 02:37:14;;;;;;;15.93;10.23;;;;;;;17.22;95.09;100930.88;5109580;28;20023;-67
2023/10/13 02:39:41;;;;;;;18.83;11.88;;;;;;;17.23;95.20;100924.13;5100317;28;20034;-65
2023/10/13 02:42:24;;;;;;;15.52;10.55;;;;;;;17.22;95.23;100924.44;5100654;28;20031;-67
2023/10/13 02:44:50;;;;;;;17.73;11.98;;;;;;;17.24;95.24;100908.13;5108236;28;20077;-66
2023/10/13 02:47:18;;;;;;;17.23;12.05;;;;;;;17.24;95.21;100894.09;5096276;28;20085;-67
2023/10/13 02:49:46;;;;;;;16.83;11.70;;;;;;;17.24;95.48;100882.88;5098566;28;20037;-66
2023/10/13 02:52:11;;;;;;;16.73;12.68;;;;;;;17.24;95.59;100883.72;5100479;28;20024;-66
2023/10/13 02:54:39;;;;;;;16.77;12.30;;;;;;;17.23;96.10;100875.63;5109024;28;20023;-66
2023/10/13 02:57:06;;;;;;;19.88;13.70;;;;;;;17.25;96.01;100873.31;5093347;28;20083;-66
2023/10/13 02:59:46;;;;;;;18.60;14.55;;;;;;;17.23;96.50;100870.84;5098960;28;20035;-66
2023/10/13 03:02:18;;;;;;;21.23;14.20;;;;;;;17.22;96.65;100868.34;5107855;28;20482;-66
2023/10/13 03:04:49;;;;;;;23.70;14.43;;;;;;;17.24;96.54;100875.31;5098918;28;20030;-66
2023/10/13 03:07:28;;;;;;;20.95;15.05;;;;;;;17.25;96.26;100851.75;5096931;28;20019;-66
2023/10/13 03:10:19;;;;;;;20.42;14.38;;;;;;;17.25;96.18;100848.09;5108958;28;20398;-65
2023/10/13 03:12:40;;;;;;;19.70;14.45;;;;;;;17.26;96.54;100835.75;5092443;28;20382;-66
2023/10/13 03:17:43;;;;;;;26.25;16.10;;;;;;;17.27;96.57;100835.44;5106655;28;20023;-66
2023/10/13 03:20:13;;;;;;;23.45;16.40;;;;;;;17.27;96.74;100827.03;5091763;28;20024;-65
2023/10/13 03:22:39;;;;;;;24.60;16.75;;;;;;;17.29;96.72;100826.72;5093862;28;20152;-65
2023/10/13 03:25:06;;;;;;;22.08;16.48;;;;;;;17.28;97.17;100822.25;5106402;28;20040;-66
2023/10/13 03:28:00;;;;;;;20.90;17.02;;;;;;;17.27;97.40;100821.41;5100874;28;20178;-66
2023/10/13 03:30:35;;;;;;;23.50;17.45;;;;;;;17.28;97.39;100814.66;5095102;28;20090;-66
2023/10/13 03:33:06;;;;;;;23.33;18.00;;;;;;;17.28;97.58;100797.00;5099856;28;20024;-65
2023/10/13 03:35:41;;;;;;;24.10;18.02;;;;;;;17.27;97.78;100792.53;5100255;28;20399;-66
2023/10/13 03:38:27;;;;;;;27.38;18.83;;;;;;;17.27;98.02;100803.75;5092561;28;20077;-66
2023/10/13 03:41:30;;;;;;;25.33;20.15;;;;;;;17.27;98.31;100787.75;5099854;28;20035;-66
2023/10/13 03:44:07;;;;;;;28.25;20.45;;;;;;;17.28;98.51;100783.81;5105658;28;20070;-65
2023/10/13 03:46:33;;;;;;;26.08;19.77;;;;;;;17.28;98.50;100777.38;5097952;28;20036;-66
2023/10/13 03:49:01;;;;;;;24.58;19.55;;;;;;;17.29;98.57;100774.28;5092816;28;20488;-65
2023/10/13 03:51:33;;;;;;;23.65;18.85;;;;;;;17.28;98.86;100778.19;5090419;28;20498;-66
2023/10/13 03:53:59;;;;;;;;;;;;;;;17.36;97.25;100762.66;5091018;28;20070;-66
2023/10/13 03:56:26;;;;;;;29.17;20.38;;;;;;;17.29;99.25;100767.81;5090415;28;19920;-66
2023/10/13 03:58:53;;;;;;;24.17;18.85;;;;;;;17.29;99.13;100756.59;5090765;28;20052;-66
2023/10/13 04:01:29;;;;;;;28.15;20.55;;;;;;;17.30;99.91;100747.06;5089372;28;20063;-65
2023/10/13 04:04:03;;;;;;;29.33;20.58;;;;;;;17.29;100.00;100749.03;5095156;28;20055;-66
2023/10/13 04:09:54;;;;;;;27.55;19.58;;;;;;;17.31;100.00;100731.88;5101571;28;20028;-66
2023/10/13 04:17:40;;;;;;;23.60;18.30;;;;;;;17.31;100.00;100720.66;5100527;28;20046;-66
2023/10/13 04:25:38;;;;;;;22.52;16.77;;;;;;;17.33;100.00;100719.25;5097965;28;20094;-65
2023/10/13 04:30:52;;;;;;;21.05;16.20;;;;;;;17.33;100.00;100716.44;5099007;28;20048;-65
2023/10/13 04:33:35;;;;;;;21.75;16.33;;;;;;;17.34;100.00;100720.91;5095894;28;20028;-65
2023/10/13 04:39:09;;;;;;;24.10;15.68;;;;;;;17.36;100.00;100717.78;5104720;28;20049;-65
2023/10/13 04:41:41;;;;;;;16.23;13.68;;;;;;;17.38;100.00;100716.34;5114227;28;20031;-65
2023/10/13 04:50:22;;;;;;;17.17;13.82;;;;;;;17.40;100.00;100700.03;5097226;28;20127;-65
2023/10/13 04:54:54;;;;;;;16.70;12.90;;;;;;;17.43;100.00;100712.63;5110983;28;20764;-65
2023/10/13 04:57:25;;;;;;;17.65;13.57;;;;;;;17.43;100.00;100710.66;5101291;28;20023;-65
2023/10/13 05:02:54;;;;;;;16.30;11.75;;;;;;;17.46;100.00;100702.78;5095028;28;20050;-65
2023/10/13 05:51:47;;;;;;;9.20;7.22;;;;;;;17.52;100.00;100614.56;5092519;28;20290;-66
2023/10/13 06:29:48;;;;;;;14.93;7.70;;;;;;;17.52;100.00;100597.72;5089813;28;20039;-65
2023/10/13 06:32:16;;;;;;;14.07;7.65;;;;;;;17.50;100.00;100605.63;5103311;28;20023;-65
2023/10/13 06:34:45;;;;;;;13.63;7.78;;;;;;;17.52;100.00;100592.13;5100135;28;20024;-65
2023/10/13 06:37:22;;;;;;;12.73;7.75;;;;;;;17.52;100.00;100592.94;5091927;28;20039;-65
2023/10/13 06:39:59;;;;;;;10.75;7.53;;;;;;;17.52;100.00;100586.50;5096035;28;20030;-66
2023/10/13 06:42:27;;;;;;;13.23;7.55;;;;;;;17.52;100.00;100575.28;5089449;28;20153;-65
2023/10/13 06:44:54;;;;;;;13.27;7.53;;;;;;;17.51;100.00;100573.63;5089242;28;20028;-66
2023/10/13 06:47:20;;;;;;;12.65;6.75;;;;;;;17.52;100.00;100564.06;5095858;28;20030;-65
2023/10/13 06:49:48;;;;;;;12.02;6.72;;;;;;;17.52;100.00;100564.06;5100870;28;20094;-65
2023/10/13 06:52:14;;;;;;;15.40;7.35;;;;;;;17.52;100.00;100564.06;5098074;28;20035;-65
2023/10/13 06:54:40;;;;;;;18.20;7.45;;;;;;;17.54;100.00;100567.41;5090667;28;20030;-67
2023/10/13 06:57:10;;;;;;;13.00;7.18;;;;;;;17.54;100.00;100556.19;5090053;28;20421;-65
2023/10/13 06:59:39;;;;;;;12.73;7.53;;;;;;;17.56;100.00;100565.09;5089938;28;20101;-65
2023/10/13 07:02:06;;;;;;;15.32;7.25;;;;;;;17.58;100.00;100557.22;5086056;28;20070;-65
2023/10/13 07:04:32;;;;;;;14.80;7.40;;;;;;;17.56;100.00;100548.28;5094850;28;20089;-67
2023/10/13 07:07:00;;;;;;;13.65;7.32;;;;;;;17.56;100.00;100549.09;5088396;28;20028;-67
2023/10/13 07:09:39;;;;;;;15.93;7.63;;;;;;;17.57;100.00;100541.53;5090022;28;20024;-67
2023/10/13 07:12:16;;;;;;;11.20;8.57;;;;;;;17.58;100.00;100534.78;5090575;28;20078;-67
2023/10/13 07:14:54;;;;;;;15.57;8.20;;;;;;;17.59;100.00;100544.84;5088191;28;20058;-66
2023/10/13 07:17:23;;;;;;;23.25;8.68;;;;;;;17.59;100.00;100528.84;5095866;28;20035;-66
2023/10/13 07:19:53;;;;;;;13.82;8.30;;;;;;;17.58;100.00;100527.19;5093449;28;20023;-67
2023/10/13 07:22:19;;;;;;;15.70;7.82;;;;;;;17.58;100.00;100520.75;5084901;28;20071;-68
2023/10/13 07:24:50;;;;;;;18.70;7.65;;;;;;;17.60;100.00;100524.06;5091939;28;20046;-68
2023/10/13 07:27:22;;;;;;;18.50;7.82;;;;;;;17.61;100.00;100520.13;5093166;28;20467;-67
2023/10/13 07:32:36;;;;;;;16.77;8.00;;;;;;;17.62;100.00;100519.00;5091569;28;20131;-67
2023/10/13 07:35:06;;;;;;;15.23;7.43;;;;;;;17.65;100.00;100516.41;5090419;28;20471;-67
2023/10/13 07:37:32;;;;;;;18.85;7.72;;;;;;;17.65;100.00;100522.00;5090347;28;20515;-66
2023/10/13 07:39:58;;;;;;;19.38;7.40;;;;;;;17.66;100.00;100512.44;5098378;28;20107;-66
2023/10/13 07:42:30;;;;;;;15.98;7.47;;;;;;;17.69;100.00;100525.03;5103009;28;20034;-66
2023/10/13 07:44:56;;;;;;;12.65;6.85;;;;;;;17.72;100.00;100515.16;5098418;28;20423;-66
2023/10/13 07:47:24;;;;;;;21.65;7.72;;;;;;;17.74;100.00;100510.91;5102077;28;20146;-66
2023/10/13 07:49:50;;;;;;;12.07;6.40;;;;;;;17.77;100.00;100517.91;5096301;28;20084;-66
2023/10/13 07:54:59;;;;;;;17.80;7.65;;;;;;;17.79;100.00;100501.56;5089928;28;20028;-67
2023/10/13 07:57:30;;;;;;;16.35;7.90;;;;;;;17.80;100.00;100498.47;5090393;28;20020;-62
2023/10/13 08:00:09;;;;;;;18.95;7.13;;;;;;;17.82;100.00;100498.16;5094670;28;20077;-71
2023/10/13 08:02:53;;;;;;;15.52;7.03;;;;;;;17.81;100.00;100491.72;5098669;28;20498;-66
2023/10/13 08:05:29;;;;;;;18.25;6.68;;;;;;;17.84;99.64;100496.72;5092280;28;20039;-67
2023/10/13 08:07:55;;;;;;;19.83;7.68;;;;;;;17.86;98.54;100491.59;5095783;28;20464;-66
2023/10/13 08:10:29;;;;;;;14.02;6.75;;;;;;;17.88;98.54;100494.09;5096271;28;20020;-67
2023/10/13 08:12:56;;;;;;;19.15;7.13;;;;;;;17.90;98.07;100503.88;5096365;28;20047;-66
2023/10/13 08:15:31;;;;;;;15.60;6.95;;;;;;;17.91;98.07;100494.31;5088056;28;20387;-69
2023/10/13 08:17:58;;;;;;;14.18;6.68;;;;;;;17.94;97.41;100481.63;5099494;28;20454;-68
2023/10/13 08:20:23;;;;;;;21.13;7.43;;;;;;;17.99;96.24;100486.31;5092846;28;20012;-68
2023/10/13 08:23:13;;;;;;;19.48;7.40;;;;;;;18.00;95.59;100480.38;5093515;28;20035;-68
2023/10/13 08:31:21;;;;;;;14.18;6.65;;;;;;;18.13;93.94;100490.78;5095789;28;20051;-67
2023/10/13 08:33:51;;;;;;;16.27;7.45;;;;;;;18.18;93.70;100478.59;5094229;28;20126;-66
2023/10/13 08:36:29;;;;;;;16.98;6.93;;;;;;;18.19;92.97;100483.06;5089569;28;20077;-64
2023/10/13 08:38:55;;;;;;;13.70;7.35;;;;;;;18.22;92.60;100471.22;5103514;28;20054;-66
2023/10/13 08:43:52;;;;;;;17.73;7.35;;;;;;;18.26;91.61;100469.44;5097778;28;20043;-67
2023/10/13 08:49:17;;;;;;;16.45;6.97;;;;;;;18.35;90.19;100486.38;5095418;28;20035;-67
2023/10/13 08:51:49;;;;;;;14.27;7.20;;;;;;;18.38;90.14;100472.53;5097308;28;20062;-67
2023/10/13 08:54:39;;;;;;;13.65;6.78;;;;;;;18.40;89.46;100464.63;5102037;28;20458;-66
2023/10/13 08:59:55;;;;;;;13.23;7.05;;;;;;;18.43;89.04;100459.50;5098031;28;20469;-66
2023/10/13 09:05:36;;;;;;;12.57;7.35;;;;;;;18.46;88.87;100454.09;5108519;28;20096;-67
2023/10/13 09:07:55;;;;;;;16.38;7.68;;;;;;;18.49;88.19;100449.84;5095704;28;20582;-66
2023/10/13 09:10:33;;;;;;;15.45;7.55;;;;;;;18.50;88.59;100446.69;5091314;28;20028;-67
2023/10/13 09:13:01;;;;;;;18.35;7.60;;;;;;;18.52;87.86;100435.16;5093996;28;20035;-66
2023/10/13 09:15:59;;;;;;;18.35;7.97;;;;;;;18.53;87.82;100439.63;5101137;28;20039;-67
2023/10/13 09:18:47;;;;;;;17.33;7.18;;;;;;;18.54;88.08;100453.34;5108632;28;20050;-66
2023/10/13 09:26:53;;;;;;;18.52;7.38;;;;;;;18.57;86.50;100440.66;5098975;28;20103;-66
2023/10/13 09:29:22;;;;;;;13.30;7.45;;;;;;;18.59;86.14;100442.00;5096557;28;20111;-66
2023/10/13 09:31:59;;;;;;;16.58;7.15;;;;;;;18.57;86.37;100444.28;5098669;28;20020;-66
2023/10/13 09:34:31;;;;;;;18.02;7.93;;;;;;;18.60;86.26;100437.22;5102438;28;20372;-67
2023/10/13 09:37:03;;;;;;;17.45;7.10;;;;;;;18.61;85.59;100434.06;5106970;28;20382;-66
2023/10/13 09:39:44;;;;;;;16.67;7.20;;;;;;;18.64;85.21;100435.44;5108943;28;20023;-67
2023/10/13 09:42:10;;;;;;;21.20;8.15;;;;;;;18.70;85.24;100424.88;5094386;28;20097;-66
2023/10/13 09:44:40;;;;;;;20.90;7.65;;;;;;;18.75;85.48;100420.00;5105165;28;20035;-66
2023/10/13 09:47:16;;;;;;;18.10;7.20;;;;;;;18.76;84.33;100418.84;5096360;28;20020;-67
2023/10/13 09:49:51;;;;;;;15.27;6.75;;;;;;;18.78;83.18;100422.16;5098573;28;20031;-66
2023/10/13 09:52:24;;;;;;;14.23;7.22;;;;;;;18.78;83.00;100410.91;5099890;28;20420;-66
2023/10/13 09:55:08;;;;;;;14.63;7.25;;;;;;;18.82;83.42;100411.97;5093721;28;20077;-65
2023/10/13 09:57:40;;;;;;;12.20;7.00;;;;;;;18.85;82.08;100407.66;5093526;28;20039;-68
2023/10/13 10:00:34;;;;;;;15.38;6.78;;;;;;;18.90;82.98;100401.91;5092068;28;20031;-68
2023/10/13 10:03:14;;;;;;;14.43;6.95;;;;;;;18.96;81.62;100400.63;5099475;28;20559;-67
2023/10/13 10:05:59;;;;;;;21.02;7.72;;;;;;;19.03;82.03;100398.22;5094216;28;20084;-68
2023/10/13 10:08:33;;;;;;;20.33;7.40;;;;;;;19.07;81.18;100401.22;5093715;28;20035;-66
2023/10/13 10:11:40;;;;;;;15.43;7.03;;;;;;;19.12;81.65;100392.63;5094605;28;20035;-67
2023/10/13 10:14:19;;;;;;;16.45;7.82;;;;;;;19.11;80.24;100391.81;5095369;28;20034;-67
2023/10/13 10:17:09;;;;;;;16.08;6.88;;;;;;;19.14;80.48;100384.72;5097549;28;20139;-69
2023/10/13 10:19:55;;;;;;;20.75;7.82;;;;;;;19.13;80.33;100383.03;5089561;28;20421;-68
2023/10/13 10:22:33;;;;;;;19.95;7.55;;;;;;;19.16;79.63;100373.13;5092274;28;20039;-68
2023/10/13 10:25:03;;;;;;;18.67;7.57;;;;;;;19.17;78.47;100384.03;5099928;28;20051;-67
2023/10/13 10:27:30;;;;;;;18.40;7.03;;;;;;;19.21;78.45;100387.03;5095285;28;20495;-68
2023/10/13 10:30:01;;;;;;;17.80;7.30;;;;;;;19.23;78.68;100379.97;5094998;28;20036;-67
2023/10/13 10:32:34;;;;;;;17.85;7.45;;;;;;;19.24;78.64;100369.53;5092659;28;20024;-67
2023/10/13 10:35:07;;;;;;;16.98;7.20;;;;;;;19.25;78.37;100368.38;5090787;28;20028;-66
2023/10/13 10:37:34;;;;;;;14.40;7.10;;;;;;;19.26;78.02;100381.31;5097758;28;20047;-67
2023/10/13 10:40:01;;;;;;;17.38;7.18;;;;;;;19.26;77.95;100370.06;5094119;28;20830;-69
2023/10/13 10:42:29;;;;;;;18.58;7.53;;;;;;;19.25;78.47;100360.75;5093313;28;20028;-66
2023/10/13 10:45:05;;;;;;;18.95;7.20;;;;;;;19.29;77.14;100375.84;5092671;28;20483;-66
2023/10/13 10:47:38;;;;;;;14.18;6.50;;;;;;;19.29;77.04;100392.72;5096540;28;20118;-67
2023/10/13 10:50:26;;;;;;;18.15;6.82;;;;;;;19.33;76.20;100367.56;5095629;28;20047;-67
2023/10/13 10:52:57;;;;;;;13.57;6.80;;;;;;;19.33;76.71;100365.59;5094374;28;20055;-74
2023/10/13 10:55:27;;;;;;;14.30;7.97;;;;;;;19.34;76.75;100375.72;5095759;28;20027;-74
2023/10/13 10:58:01;;;;;;;18.23;7.63;;;;;;;19.35;77.30;100371.75;5093330;28;20118;-69
2023/10/13 11:00:41;;;;;;;18.08;7.38;;;;;;;19.35;76.73;100363.28;5094369;28;20028;-69
2023/10/13 11:03:07;;;;;;;17.08;7.22;;;;;;;19.35;76.04;100366.13;5093608;28;20039;-70
2023/10/13 11:05:43;;;;;;;20.00;8.20;;;;;;;19.38;77.43;100381.53;5094080;28;20030;-69
2023/10/13 11:08:25;;;;;;;17.27;7.35;;;;;;;19.41;76.33;100377.22;5103931;28;20047;-69
2023/10/13 11:10:50;;;;;;;18.65;7.95;;;;;;;19.45;76.09;100375.41;5102388;28;20019;-70
2023/10/13 11:13:22;;;;;;;20.27;7.47;;;;;;;19.51;75.58;100354.44;5094896;28;20177;-71
2023/10/13 11:15:48;;;;;;;16.33;7.53;;;;;;;19.55;74.22;100352.63;5094859;28;20028;-69
2023/10/13 11:18:23;;;;;;;16.20;7.60;;;;;;;19.53;74.95;100350.13;5096760;28;20034;-69
2023/10/13 11:20:55;;;;;;;20.58;7.35;;;;;;;19.57;74.96;100344.66;5094912;28;20026;-69
2023/10/13 11:23:25;;;;;;;14.05;6.85;;;;;;;19.60;74.61;100341.19;5089456;28;20047;-73
2023/10/13 11:26:00;;;;;;;20.35;7.75;;;;;;;19.64;73.96;100328.16;5105177;28;20044;-71
2023/10/13 11:28:28;;;;;;;19.27;7.05;;;;;;;19.69;73.58;100327.19;5093681;28;20053;-71
2023/10/13 11:31:10;;;;;;;15.63;7.30;;;;;;;19.74;73.41;100312.97;5092442;28;20058;-71
2023/10/13 11:33:46;;;;;;;18.77;7.00;;;;;;;19.76;73.79;100311.47;5097364;28;20087;-68
2023/10/13 11:36:22;;;;;;;24.67;8.10;;;;;;;19.81;73.15;100290.78;5096340;28;20028;-69
2023/10/13 11:41:16;;;;;;;15.95;7.05;;;;;;;19.90;72.03;100293.59;5097744;28;20035;-68
2023/10/13 11:46:14;;;;;;;22.15;8.10;;;;;;;19.93;71.87;100287.31;5095819;28;20031;-70
2023/10/13 11:48:42;;;;;;;19.42;7.05;;;;;;;19.98;71.86;100279.53;5098506;28;20028;-70
2023/10/13 11:51:23;;;;;;;18.00;7.30;;;;;;;20.01;72.37;100273.25;5091606;28;20028;-70
2023/10/13 11:53:51;;;;;;;16.25;7.18;;;;;;;20.05;71.65;100279.03;5097755;28;20535;-70
2023/10/13 11:56:28;;;;;;;22.27;7.70;;;;;;;20.09;71.31;100272.41;5096377;28;20031;-70
2023/10/13 11:58:53;;;;;;;18.88;7.78;;;;;;;20.08;70.98;100267.09;5092825;28;20058;-70
2023/10/13 12:11:50;;;;;;;;;;;;;;;20.25;72.93;100253.00;5095733;28;20081;-70
2023/10/13 12:14:27;;;;;;;16.95;7.38;;;;;;;20.31;69.80;100253.66;5090078;28;19920;-68
2023/10/13 12:16:53;;;;;;;19.40;7.43;;;;;;;20.39;69.69;100246.34;5094558;28;20028;-72
2023/10/13 12:19:29;;;;;;;19.45;7.65;;;;;;;20.45;69.71;100245.84;5091646;28;20036;-70
2023/10/13 12:21:55;;;;;;;20.35;7.78;;;;;;;20.47;69.62;100248.31;5090035;28;20114;-68
2023/10/13 12:27:19;;;;;;;18.88;7.25;;;;;;;20.54;68.09;100245.88;5091523;28;20093;-70
2023/10/13 12:29:49;;;;;;;21.42;7.53;;;;;;;20.62;67.62;100245.00;5096888;28;20052;-70
2023/10/13 12:32:20;;;;;;;24.13;7.07;;;;;;;20.64;68.33;100247.50;5098565;28;20446;-72
2023/10/13 12:51:20;;;;;;;18.20;6.88;;;;;;;20.59;67.40;100237.22;5095127;28;20070;-74
2023/10/13 12:53:51;;;;;;;21.73;7.82;;;;;;;20.63;66.55;100235.38;5105532;28;20028;-70
2023/10/13 12:56:17;;;;;;;17.55;6.95;;;;;;;20.64;66.37;100234.25;5092140;28;20032;-68
2023/10/13 12:58:51;;;;;;;18.25;7.10;;;;;;;20.64;66.56;100224.97;5098355;28;20067;-67
2023/10/13 13:01:22;;;;;;;19.27;6.82;;;;;;;20.65;65.98;100229.44;5098099;28;20035;-68
2023/10/13 13:03:55;;;;;;;24.02;7.07;;;;;;;20.73;65.60;100237.84;5096276;28;20110;-67
2023/10/13 13:06:25;;;;;;;23.17;6.85;;;;;;;20.71;65.55;100228.06;5097148;28;21413;-70
2023/10/13 13:08:54;;;;;;;14.65;6.63;;;;;;;20.78;65.85;100237.66;5101310;28;20028;-68
2023/10/13 13:11:20;;;;;;;21.70;6.35;;;;;;;20.79;65.37;100235.69;5102386;28;20035;-69
2023/10/13 13:13:47;;;;;;;17.17;6.28;;;;;;;20.78;64.87;100234.84;5097673;28;20055;-68
2023/10/13 13:16:23;;;;;;;18.13;5.93;;;;;;;20.84;64.66;100236.31;5098864;28;20051;-65
2023/10/13 13:18:54;;;;;;;20.08;6.75;;;;;;;20.86;63.66;100235.97;5095720;28;20039;-65
2023/10/13 13:21:22;;;;;;;16.10;6.13;;;;;;;20.86;64.17;100223.88;5096859;28;20054;-67
2023/10/13 13:23:51;;;;;;;18.40;6.00;;;;;;;20.88;63.43;100216.75;5098271;28;20028;-66
2023/10/13 13:26:17;;;;;;;15.82;6.05;;;;;;;20.87;63.55;100222.69;5095022;28;20069;-66
2023/10/13 13:28:46;;;;;;;11.88;5.30;;;;;;;20.88;63.10;100222.38;5093314;28;20058;-66
2023/10/13 13:31:15;;;;;;;16.83;6.43;;;;;;;20.89;62.60;100229.66;5097387;28;20038;-67
2023/10/13 13:33:43;;;;;;;17.13;6.05;;;;;;;20.92;62.55;100219.72;5096090;28;20761;-69
2023/10/13 13:36:13;;;;;;;21.58;6.25;;;;;;;20.91;62.58;100221.72;5095925;28;20028;-70
2023/10/13 13:38:40;;;;;;;12.05;5.72;;;;;;;20.96;62.74;100209.41;5096920;28;20045;-66
2023/10/13 13:41:14;;;;;;;17.83;6.05;;;;;;;20.93;62.97;100227.00;5094363;28;20194;-65
2023/10/13 13:44:07;;;;;;;16.27;5.47;;;;;;;20.88;63.19;100224.38;5102021;28;20808;-68
2023/10/13 13:46:32;;;;;;;15.80;5.70;;;;;;;20.88;62.59;100236.47;5092738;28;20051;-61
2023/10/13 13:49:00;;;;;;;18.20;5.72;;;;;;;20.85;62.86;100211.78;5094177;28;20036;-66
2023/10/13 13:51:32;;;;;;;19.83;5.93;;;;;;;20.83;63.81;100214.94;5101028;28;20107;-68
2023/10/13 13:53:58;;;;;;;16.10;5.82;;;;;;;20.79;64.12;100219.59;5102420;28;20032;-66
2023/10/13 13:56:28;;;;;;;17.95;5.85;;;;;;;20.77;64.20;100221.91;5099861;28;20031;-64
2023/10/13 13:58:55;;;;;;;19.77;5.90;;;;;;;20.80;63.03;100209.97;5100130;28;20487;-63
2023/10/13 14:01:21;;;;;;;17.70;5.35;;;;;;;20.79;64.01;100208.31;5098796;28;20115;-71
2023/10/13 14:03:52;;;;;;;15.95;6.00;;;;;;;20.79;63.45;100208.31;5095641;28;20063;-66
2023/10/13 14:06:23;;;;;;;13.43;5.18;;;;;;;20.73;64.32;100204.00;5096069;28;20058;-68
2023/10/13 14:14:33;;;;;;;15.77;5.65;;;;;;;20.78;63.67;100217.91;5094701;28;20028;-65
2023/10/13 14:17:03;;;;;;;22.20;5.95;;;;;;;20.79;63.07;100207.50;5096118;28;20028;-69
2023/10/13 14:19:28;;;;;;;16.60;5.85;;;;;;;20.78;62.66;100211.47;5099038;28;20027;-67
2023/10/13 14:21:58;;;;;;;14.65;5.53;;;;;;;20.83;63.29;100214.13;5098262;28;20380;-67
2023/10/13 14:24:32;;;;;;;14.82;6.00;;;;;;;20.80;63.20;100209.97;5102664;28;20031;-66
2023/10/13 14:27:08;;;;;;;17.48;6.05;;;;;;;20.82;63.04;100226.53;5092074;28;20077;-67
2023/10/13 14:29:40;;;;;;;17.40;5.93;;;;;;;20.84;62.67;100213.75;5094250;28;20035;-65
2023/10/13 14:32:07;;;;;;;18.63;5.83;;;;;;;20.88;62.88;100224.38;5099409;28;20799;-67
2023/10/13 14:34:35;;;;;;;12.32;5.60;;;;;;;20.88;62.63;100211.09;5097645;28;20118;-66
2023/10/13 14:37:00;;;;;;;15.32;5.85;;;;;;;20.84;63.50;100204.47;5095034;28;20031;-66
2023/10/13 14:39:29;;;;;;;17.30;5.88;;;;;;;20.83;63.12;100209.28;5099207;28;20027;-64
2023/10/13 14:41:55;;;;;;;15.80;5.32;;;;;;;20.82;63.15;100218.06;5098302;28;20082;-65